| Record Date MM/DD/YYYY | Record Time HH:MM:SS | Record Julian Date NNN day of the year | Air Temperature Max (Degrees Fahrenheit F) | Time Max Air Temperature HH:MM:SS This is the time of max air temp for the prior hour interval listed for record [Time]. | Air Temperature Min (Degrees Fahrenheit F) | Time Min Air Temperature HH:MM:SS This is the time of min air temp for the prior hour interval listed for record [Time]. | Air Temperature Observed (Degrees Fahrenheit F) This is an instantaneous reading at the record [Time]. | Relative Humidity Max (Percent) | Time Max Relative Humidity HH:MM:SS This is the time of max relative humidity for the prior hour interval listed for record [Time]. | Relative Humidity Min (Percent) | Time Min Relative Humidity HH:MM:SS This is the time of min relative humidity for the prior hour interval listed for record [Time]. | Relative Humidity Observed (Percent) This is an instantaneous reading at the record [Time]. | Precipitation (Inches n.nn) rain fall that occurred during the prior hour interval listed for record [Time]. | Wind Speed (Miles Per Hour) Resultant Speed that occurred during the prior hour interval listed for record [Time]. | Wind Direction (Degrees) Resultant Direction that occurred during the prior hour interval listed for record [Time]. | Solar Radiation (Langley's) that occurred during the prior hour interval listed for record [Time]. | Soil Temperature Average at 2 inch depth (Degrees Fahrenheit F) that occurred during the prior hour interval listed for record [Time]. | Soil Temperature Observed at 2 inch depth (Degrees Fahrenheit F) This is an instantaneous reading at the record [Time]. | Soil Temperature Average at 4 inch depth (Degrees Fahrenheit F) that occurred during the prior hour interval listed for record [Time]. | Soil Temperature Observed at 4 inch depth (Degrees Fahrenheit F) This is an instantaneous reading at the record [Time]. |
|---|---|---|---|---|---|---|---|---|---|---|---|---|---|---|---|---|---|---|---|---|
| 08/26/2026 | 0:00:00 | 238 | 75 | 23:03:05 | 75 | 23:54:04 | 75 | 94 | 23:56:05 | 93 | 23:17:02 | 94 | 0 | 0.1 | 154 | 0 | 82 | 82 | 83 | 83 |
| 08/26/2026 | 1:00:00 | 238 | 75 | 0:14:01 | 75 | 0:57:04 | 75 | 94 | 0:59:03 | 94 | 0:28:01 | 94.4 | 0 | 0.4 | 194 | 0 | 82 | 82 | 83 | 83 |
| 08/26/2026 | 2:00:00 | 238 | 75 | 1:00:04 | 74 | 1:57:02 | 74 | 95 | 1:40:05 | 94 | 1:43:05 | 95.1 | 0 | 0.4 | 197 | 0 | 82 | 82 | 82 | 82 |
| 08/26/2026 | 3:00:00 | 238 | 74 | 2:16:01 | 74 | 2:57:03 | 74 | 96 | 2:40:00 | 95 | 2:25:01 | 95.4 | 0 | 0.2 | 199 | 0 | 81 | 81 | 82 | 82 |
| 08/26/2026 | 4:00:00 | 238 | 74 | 3:16:03 | 73 | 3:41:02 | 74 | 96 | 3:59:01 | 95 | 3:00:04 | 95.9 | 0 | 0.1 | 181 | 0 | 81 | 81 | 82 | 82 |
| 08/26/2026 | 5:00:00 | 238 | 74 | 4:00:03 | 73 | 4:51:05 | 73 | 96 | 4:58:02 | 96 | 4:08:03 | 96.2 | 0 | 0.2 | 214 | 0 | 81 | 81 | 82 | 82 |
| 08/26/2026 | 6:00:00 | 238 | 73 | 5:00:01 | 72 | 5:42:03 | 73 | 97 | 5:58:03 | 96 | 5:13:01 | 96.5 | 0 | 0.0 | 0 | 1 | 81 | 80 | 81 | 81 |
| 08/26/2026 | 7:00:00 | 238 | 79 | 6:51:00 | 73 | 6:00:01 | 79 | 97 | 6:30:05 | 86 | 6:59:05 | 86.4 | 0 | 0.7 | 209 | 11 | 80 | 80 | 81 | 81 |
| 08/26/2026 | 8:00:00 | 238 | 84 | 7:55:01 | 79 | 7:00:01 | 84 | 87 | 7:00:03 | 75 | 7:59:00 | 75.02 | 0 | 2.9 | 319 | 27 | 81 | 81 | 81 | 81 |
| 08/26/2026 | 9:00:00 | 238 | 88 | 8:52:00 | 84 | 8:00:03 | 87 | 76 | 8:03:05 | 65 | 8:59:01 | 67.76 | 0 | 4.3 | 323 | 36 | 82 | 82 | 81 | 82 |
| 08/26/2026 | 10:00:00 | 238 | 91 | 9:52:00 | 87 | 9:15:05 | 90 | 69 | 9:01:01 | 57 | 9:58:05 | 58.63 | 0 | 4.6 | 323 | 48 | 82 | 83 | 82 | 82 |
| 08/26/2026 | 11:00:00 | 238 | 93 | 10:58:05 | 89 | 10:19:04 | 92 | 63 | 10:52:02 | 55 | 10:58:00 | 55.62 | 0 | 3.5 | 299 | 38 | 83 | 84 | 82 | 83 |
| 08/26/2026 | 12:00:00 | 238 | 95 | 12:00:00 | 92 | 11:20:00 | 95 | 60 | 11:18:05 | 51 | 11:59:01 | 51.56 | 0 | 4.5 | 307 | 69 | 84 | 85 | 83 | 83 |
| 08/26/2026 | 13:00:00 | 238 | 97 | 12:47:01 | 94 | 12:08:02 | 97 | 54 | 12:01:03 | 44 | 12:52:00 | 45.35 | 0 | 5.3 | 297 | 73 | 86 | 87 | 84 | 84 |
| 08/26/2026 | 14:00:00 | 238 | 98 | 13:51:01 | 96 | 13:06:00 | 96 | 49 | 13:13:01 | 41 | 13:56:04 | 42.2 | 0 | 6.0 | 315 | 66 | 87 | 87 | 85 | 85 |
| 08/26/2026 | 15:00:00 | 238 | 98 | 14:04:03 | 96 | 14:35:00 | 97 | 46 | 14:02:02 | 40 | 14:19:01 | 44.09 | 0 | 3.7 | 320 | 45 | 88 | 88 | 86 | 86 |
| 08/26/2026 | 16:00:00 | 238 | 97 | 15:14:04 | 95 | 15:37:05 | 96 | 49 | 15:34:03 | 41 | 15:09:05 | 45.78 | 0 | 5.3 | 339 | 42 | 88 | 88 | 86 | 86 |
| 08/26/2026 | 17:00:00 | 238 | 97 | 16:09:02 | 90 | 16:59:05 | 90 | 65 | 16:59:00 | 43 | 16:09:03 | 64.39 | 0 | 2.4 | 126 | 15 | 87 | 87 | 86 | 86 |
| 08/26/2026 | 18:00:00 | 238 | 90 | 17:03:05 | 88 | 17:55:02 | 88 | 71 | 17:45:00 | 64 | 17:00:00 | 70.48 | 0 | 2.7 | 87 | 5 | 87 | 87 | 86 | 86 |
| 08/26/2026 | 19:00:00 | 238 | 88 | 18:00:02 | 74 | 18:59:04 | 74 | 89 | 19:00:00 | 69 | 18:10:03 | 88.9 | 0 | 3.8 | 64 | 0 | 86 | 86 | 86 | 85 |
| 08/26/2026 | 20:00:00 | 238 | 74 | 19:00:00 | 72 | 19:58:03 | 72 | 93 | 19:59:02 | 89 | 19:01:01 | 93.4 | 0.02 | 2.3 | 64 | 0 | 85 | 85 | 85 | 85 |
| 08/26/2026 | 21:00:00 | 238 | 73 | 20:42:05 | 72 | 20:01:00 | 72 | 95 | 20:38:02 | 93 | 20:01:01 | 93.7 | 0.01 | 3.7 | 107 | 0 | 84 | 84 | 85 | 84 |
| 08/26/2026 | 22:00:00 | 238 | 72 | 21:05:02 | 72 | 21:55:04 | 72 | 95 | 21:59:04 | 93 | 21:10:02 | 94.6 | 0 | 1.4 | 176 | 0 | 83 | 83 | 84 | 84 |
| 08/26/2026 | 23:00:00 | 238 | 73 | 22:59:04 | 72 | 22:00:00 | 73 | 95 | 22:19:04 | 94 | 23:00:00 | 94.3 | 0 | 2.3 | 97 | 0 | 83 | 82 | 84 | 83 |
| 08/27/2026 | 0:00:00 | 239 | 73 | 23:50:00 | 73 | 23:00:00 | 73 | 94 | 23:00:00 | 93 | 23:13:01 | 93.7 | 0 | 1.9 | 21 | 0 | 82 | 82 | 83 | 83 |
| 08/27/2026 | 1:00:00 | 239 | 73 | 0:00:01 | 72 | 0:52:05 | 73 | 95 | 0:59:05 | 94 | 0:00:04 | 94.9 | 0 | 2.2 | 178 | 0 | 82 | 82 | 83 | 83 |
| 08/27/2026 | 2:00:00 | 239 | 73 | 1:46:00 | 72 | 1:26:02 | 72 | 95 | 1:43:02 | 95 | 1:01:02 | 95.3 | 0.01 | 3.3 | 193 | 0 | 82 | 81 | 82 | 82 |
| 08/27/2026 | 3:00:00 | 239 | 73 | 2:37:04 | 72 | 2:26:01 | 72 | 96 | 2:54:04 | 95 | 2:00:00 | 95.7 | 0.01 | 0.6 | 41 | 0 | 81 | 81 | 82 | 82 |
| 08/27/2026 | 4:00:00 | 239 | 73 | 3:33:04 | 72 | 3:23:00 | 73 | 96 | 3:33:04 | 96 | 3:12:02 | 96.1 | 0.02 | 0.4 | 61 | 0 | 81 | 81 | 82 | 82 |
| 08/27/2026 | 5:00:00 | 239 | 73 | 4:01:04 | 72 | 4:13:02 | 72 | 96 | 4:52:03 | 96 | 4:11:01 | 96.2 | 0.08 | 1.2 | 308 | 0 | 81 | 81 | 82 | 82 |
| 08/27/2026 | 6:00:00 | 239 | 73 | 5:59:01 | 72 | 5:03:00 | 73 | 97 | 5:59:03 | 96 | 5:03:04 | 96.5 | 0.05 | 0.6 | 37 | 0 | 81 | 80 | 81 | 81 |
| 08/27/2026 | 7:00:00 | 239 | 73 | 6:38:03 | 73 | 6:08:05 | 73 | 97 | 6:35:02 | 96 | 6:58:05 | 96.4 | 0 | 0.8 | 110 | 2 | 80 | 80 | 81 | 81 |
| 08/27/2026 | 8:00:00 | 239 | 74 | 7:50:04 | 73 | 7:00:03 | 74 | 97 | 7:01:03 | 96 | 7:55:00 | 96.1 | 0 | 1.9 | 192 | 5 | 80 | 80 | 81 | 81 |
| 08/27/2026 | 9:00:00 | 239 | 74 | 8:59:05 | 73 | 8:36:04 | 74 | 96 | 8:02:05 | 95 | 8:51:05 | 95.4 | 0.02 | 1.8 | 203 | 6 | 80 | 80 | 81 | 81 |
| 08/27/2026 | 10:00:00 | 239 | 76 | 9:32:02 | 74 | 9:03:02 | 75 | 96 | 9:00:01 | 93 | 9:58:03 | 94 | 0.01 | 1.0 | 349 | 14 | 80 | 81 | 81 | 81 |
| 08/27/2026 | 11:00:00 | 239 | 79 | 10:59:00 | 75 | 10:04:00 | 79 | 94 | 10:00:01 | 88 | 11:00:00 | 88 | 0 | 1.9 | 341 | 29 | 81 | 82 | 81 | 81 |
| 08/27/2026 | 12:00:00 | 239 | 83 | 11:48:00 | 79 | 11:00:02 | 81 | 88 | 11:02:03 | 77 | 11:48:04 | 82.3 | 0 | 1.3 | 76 | 43 | 82 | 83 | 82 | 82 |
| 08/27/2026 | 13:00:00 | 239 | 84 | 12:17:05 | 81 | 12:02:00 | 81 | 85 | 12:00:05 | 77 | 12:20:01 | 80.1 | 0 | 2.9 | 320 | 32 | 84 | 84 | 82 | 83 |
| 08/27/2026 | 14:00:00 | 239 | 83 | 13:57:03 | 81 | 13:01:01 | 83 | 82 | 13:33:01 | 77 | 13:57:05 | 79.84 | 0 | 3.0 | 336 | 32 | 84 | 85 | 83 | 83 |
| 08/27/2026 | 15:00:00 | 239 | 84 | 14:09:04 | 82 | 14:15:03 | 83 | 81 | 14:01:02 | 75 | 14:45:01 | 75.81 | 0 | 3.3 | 352 | 32 | 85 | 85 | 84 | 84 |
| 08/27/2026 | 16:00:00 | 239 | 84 | 15:26:01 | 83 | 15:09:00 | 83 | 79 | 15:13:01 | 71 | 15:47:01 | 77.6 | 0 | 3.1 | 317 | 27 | 85 | 85 | 84 | 84 |
| 08/27/2026 | 17:00:00 | 239 | 83 | 16:08:02 | 82 | 16:44:04 | 83 | 80 | 16:46:05 | 75 | 16:05:04 | 76.12 | 0 | 2.0 | 298 | 16 | 85 | 85 | 84 | 84 |
| 08/27/2026 | 18:00:00 | 239 | 86 | 17:30:04 | 82 | 17:59:04 | 82 | 84 | 17:59:01 | 72 | 17:31:00 | 83.9 | 0 | 1.8 | 186 | 13 | 85 | 85 | 84 | 84 |
| 08/27/2026 | 19:00:00 | 239 | 82 | 18:00:00 | 78 | 18:59:01 | 78 | 91 | 19:00:00 | 83 | 18:01:01 | 91.1 | 0 | 1.8 | 142 | 1 | 84 | 84 | 84 | 84 |
| 08/27/2026 | 20:00:00 | 239 | 78 | 19:00:02 | 76 | 19:59:04 | 76 | 93 | 19:59:05 | 91 | 19:01:05 | 93.4 | 0 | 1.1 | 135 | 0 | 84 | 83 | 84 | 84 |
| 08/27/2026 | 21:00:00 | 239 | 76 | 20:00:00 | 75 | 20:55:04 | 75 | 95 | 20:59:02 | 93 | 20:00:04 | 94.9 | 0 | 0.4 | 179 | 0 | 83 | 83 | 83 | 83 |
| 08/27/2026 | 22:00:00 | 239 | 75 | 21:00:02 | 73 | 21:52:05 | 74 | 96 | 21:59:05 | 95 | 21:04:05 | 95.8 | 0 | 0.4 | 353 | 0 | 82 | 82 | 83 | 83 |
| 08/27/2026 | 23:00:00 | 239 | 74 | 22:00:02 | 73 | 22:50:01 | 73 | 96 | 22:55:03 | 96 | 22:10:00 | 96.3 | 0 | 0.1 | 350 | 0 | 82 | 81 | 82 | 82 |
| 08/28/2026 | 0:00:00 | 240 | 74 | 23:08:00 | 72 | 23:49:04 | 73 | 97 | 23:56:00 | 96 | 23:14:05 | 96.6 | 0 | 0.2 | 39 | 0 | 81 | 81 | 82 | 82 |
| 08/28/2026 | 1:00:00 | 240 | 73 | 0:38:00 | 72 | 0:53:00 | 72 | 97 | 0:38:02 | 96 | 0:27:05 | 96.8 | 0 | 0.6 | 37 | 0 | 81 | 80 | 82 | 81 |
| 08/28/2026 | 2:00:00 | 240 | 73 | 1:06:00 | 72 | 1:31:04 | 73 | 97 | 1:55:01 | 96 | 1:15:04 | 97.1 | 0 | 0.9 | 9 | 0 | 80 | 80 | 81 | 81 |
| 08/28/2026 | 3:00:00 | 240 | 73 | 2:05:01 | 72 | 2:51:04 | 72 | 97 | 2:02:03 | 97 | 2:23:01 | 97 | 0 | 0.4 | 5 | 0 | 80 | 80 | 81 | 81 |
| 08/28/2026 | 4:00:00 | 240 | 72 | 3:02:03 | 71 | 3:59:04 | 71 | 97 | 3:41:02 | 97 | 3:23:01 | 96.9 | 0 | 0.3 | 214 | 0 | 80 | 79 | 81 | 81 |
| 08/28/2026 | 5:00:00 | 240 | 71 | 4:00:00 | 70 | 4:39:01 | 70 | 97 | 4:48:00 | 97 | 4:03:01 | 97.1 | 0 | 0.2 | 216 | 0 | 79 | 79 | 80 | 80 |
| 08/28/2026 | 6:00:00 | 240 | 71 | 5:14:01 | 70 | 5:36:00 | 70 | 97 | 5:15:00 | 97 | 5:29:03 | 97.3 | 0 | 0.0 | 0 | 1 | 79 | 79 | 80 | 80 |
| 08/28/2026 | 7:00:00 | 240 | 74 | 6:23:01 | 70 | 6:00:01 | 74 | 98 | 6:23:01 | 96 | 7:00:00 | 95.8 | 0 | 1.0 | 350 | 13 | 79 | 79 | 80 | 80 |
| 08/28/2026 | 8:00:00 | 240 | 80 | 8:00:00 | 74 | 7:00:00 | 80 | 96 | 7:01:04 | 86 | 7:36:01 | 86.8 | 0 | 1.5 | 343 | 29 | 79 | 79 | 80 | 80 |
| 08/28/2026 | 9:00:00 | 240 | 88 | 8:59:05 | 80 | 8:00:02 | 88 | 87 | 8:00:00 | 71 | 8:58:03 | 72.33 | 0 | 2.4 | 2 | 44 | 80 | 81 | 80 | 80 |
| 08/28/2026 | 10:00:00 | 240 | 90 | 9:58:02 | 86 | 9:27:03 | 90 | 77 | 9:28:01 | 65 | 9:55:04 | 66.2 | 0 | 2.3 | 20 | 55 | 82 | 83 | 81 | 81 |
| 08/28/2026 | 11:00:00 | 240 | 92 | 11:00:00 | 88 | 10:04:03 | 92 | 72 | 10:05:05 | 58 | 10:50:04 | 60.08 | 0 | 2.6 | 23 | 67 | 84 | 85 | 82 | 83 |
| 08/28/2026 | 12:00:00 | 240 | 94 | 11:18:04 | 91 | 11:38:03 | 93 | 65 | 11:11:03 | 52 | 11:59:04 | 53.47 | 0 | 2.4 | 44 | 67 | 86 | 87 | 83 | 84 |
| 08/28/2026 | 13:00:00 | 240 | 94 | 12:49:02 | 92 | 12:21:04 | 94 | 58 | 12:24:05 | 48 | 12:51:02 | 52.57 | 0 | 2.3 | 49 | 65 | 87 | 88 | 85 | 85 |
| 08/28/2026 | 14:00:00 | 240 | 95 | 13:15:05 | 83 | 13:42:05 | 85 | 74 | 13:52:04 | 48 | 13:02:04 | 69.6 | 0 | 7.0 | 359 | 44 | 88 | 88 | 86 | 86 |
| 08/28/2026 | 15:00:00 | 240 | 85 | 14:00:00 | 81 | 14:32:01 | 82 | 78 | 14:32:03 | 70 | 14:01:01 | 74.52 | 0 | 7.0 | 344 | 16 | 88 | 87 | 86 | 86 |
| 08/28/2026 | 16:00:00 | 240 | 86 | 15:59:03 | 82 | 15:00:04 | 86 | 76 | 15:00:05 | 64 | 15:58:02 | 64.9 | 0 | 4.3 | 349 | 23 | 86 | 86 | 86 | 85 |
| 08/28/2026 | 17:00:00 | 240 | 88 | 16:59:05 | 86 | 16:08:03 | 88 | 68 | 16:24:05 | 60 | 16:59:04 | 60.56 | 0 | 2.9 | 5 | 25 | 86 | 86 | 85 | 85 |
| 08/28/2026 | 18:00:00 | 240 | 89 | 17:05:05 | 81 | 18:00:00 | 81 | 77 | 17:59:03 | 58 | 17:06:01 | 76.55 | 0 | 0.8 | 31 | 9 | 85 | 85 | 85 | 85 |
| 08/28/2026 | 19:00:00 | 240 | 81 | 18:00:00 | 76 | 18:59:04 | 76 | 86 | 19:00:00 | 76 | 18:05:05 | 85.8 | 0 | 0.2 | 278 | 0 | 85 | 84 | 85 | 84 |
| 08/28/2026 | 20:00:00 | 240 | 76 | 19:00:00 | 73 | 19:58:01 | 73 | 93 | 20:00:00 | 86 | 19:00:00 | 92.7 | 0 | 0.4 | 208 | 0 | 84 | 83 | 84 | 84 |
| 08/28/2026 | 21:00:00 | 240 | 73 | 20:00:01 | 71 | 20:57:00 | 72 | 95 | 20:59:05 | 93 | 20:02:03 | 94.5 | 0 | 0.0 | 358 | 0 | 83 | 82 | 84 | 83 |
| 08/28/2026 | 22:00:00 | 240 | 72 | 21:00:01 | 71 | 21:48:00 | 71 | 96 | 21:52:00 | 94 | 21:01:01 | 95.5 | 0 | 0.0 | 244 | 0 | 82 | 81 | 83 | 83 |
| 08/28/2026 | 23:00:00 | 240 | 71 | 22:02:00 | 69 | 22:48:02 | 70 | 96 | 22:56:03 | 95 | 22:22:00 | 95.8 | 0 | 0.2 | 206 | 0 | 81 | 81 | 82 | 82 |
| 08/29/2026 | 0:00:00 | 241 | 70 | 23:00:03 | 68 | 23:59:01 | 68 | 96 | 23:21:02 | 96 | 23:05:04 | 96 | 0 | 0.0 | 0 | 0 | 80 | 80 | 82 | 81 |
| 08/29/2026 | 1:00:00 | 241 | 69 | 0:16:05 | 68 | 0:34:01 | 68 | 97 | 0:46:03 | 96 | 0:00:01 | 96.5 | 0 | 0.0 | 0 | 0 | 80 | 79 | 81 | 81 |
| 08/29/2026 | 2:00:00 | 241 | 68 | 1:00:00 | 67 | 1:58:02 | 67 | 97 | 1:33:03 | 96 | 1:12:03 | 96.5 | 0 | 0.1 | 218 | 0 | 79 | 79 | 81 | 80 |
| 08/29/2026 | 3:00:00 | 241 | 67 | 2:19:03 | 66 | 2:51:04 | 66 | 97 | 2:14:01 | 96 | 2:33:04 | 96.7 | 0 | 0.0 | 0 | 0 | 79 | 78 | 80 | 80 |
| 08/29/2026 | 4:00:00 | 241 | 66 | 3:00:02 | 66 | 3:59:02 | 66 | 97 | 3:46:00 | 97 | 3:00:03 | 96.8 | 0 | 0.3 | 191 | 0 | 78 | 78 | 80 | 80 |
| 08/29/2026 | 5:00:00 | 241 | 66 | 4:00:02 | 65 | 5:00:00 | 65 | 97 | 4:37:02 | 97 | 4:07:01 | 96.9 | 0 | 0.3 | 202 | 0 | 78 | 78 | 79 | 79 |
| 08/29/2026 | 6:00:00 | 241 | 65 | 5:00:00 | 64 | 5:37:00 | 65 | 97 | 6:00:00 | 97 | 5:04:05 | 97.3 | 0 | 0.1 | 195 | 1 | 77 | 77 | 79 | 79 |
| 08/29/2026 | 7:00:00 | 241 | 71 | 6:50:03 | 65 | 6:00:00 | 71 | 98 | 6:21:01 | 96 | 6:54:02 | 96.1 | 0 | 0.4 | 179 | 14 | 77 | 77 | 79 | 79 |
| 08/29/2026 | 8:00:00 | 241 | 81 | 7:59:05 | 71 | 7:00:00 | 81 | 97 | 7:09:05 | 74 | 7:53:00 | 75.6 | 0 | 0.6 | 69 | 30 | 78 | 78 | 79 | 79 |
| 08/29/2026 | 9:00:00 | 241 | 86 | 8:52:05 | 81 | 8:00:00 | 85 | 77 | 8:00:02 | 64 | 8:52:01 | 67.83 | 0 | 1.9 | 72 | 46 | 79 | 80 | 79 | 79 |
| 08/29/2026 | 10:00:00 | 241 | 92 | 9:50:04 | 85 | 9:03:00 | 89 | 69 | 9:06:01 | 48 | 9:57:05 | 52.73 | 0 | 2.8 | 3 | 60 | 81 | 82 | 80 | 80 |
| 08/29/2026 | 11:00:00 | 241 | 94 | 10:56:03 | 89 | 10:02:05 | 93 | 57 | 10:09:02 | 46 | 10:58:00 | 47.44 | 0 | 3.0 | 11 | 69 | 83 | 83 | 81 | 82 |
| 08/29/2026 | 12:00:00 | 241 | 94 | 11:53:05 | 90 | 11:30:05 | 93 | 55 | 11:47:03 | 45 | 11:13:02 | 47.2 | 0 | 2.2 | 21 | 65 | 84 | 85 | 82 | 83 |
| 08/29/2026 | 13:00:00 | 241 | 96 | 12:47:03 | 91 | 12:26:00 | 94 | 53 | 12:08:01 | 43 | 12:48:03 | 46.77 | 0 | 1.9 | 41 | 53 | 86 | 86 | 83 | 84 |
| 08/29/2026 | 14:00:00 | 241 | 94 | 13:49:03 | 91 | 13:31:02 | 91 | 54 | 13:33:05 | 46 | 13:50:04 | 50.35 | 0 | 2.0 | 42 | 30 | 86 | 87 | 84 | 84 |
| 08/29/2026 | 15:00:00 | 241 | 96 | 14:46:00 | 90 | 14:05:04 | 95 | 53 | 14:06:04 | 44 | 14:55:04 | 44.23 | 0 | 2.3 | 82 | 54 | 87 | 87 | 85 | 85 |
| 08/29/2026 | 16:00:00 | 241 | 96 | 15:34:02 | 92 | 15:21:01 | 94 | 51 | 15:48:04 | 43 | 15:34:03 | 46.6 | 0 | 2.1 | 15 | 38 | 87 | 87 | 85 | 85 |
| 08/29/2026 | 17:00:00 | 241 | 95 | 16:09:05 | 93 | 16:46:04 | 93 | 50 | 16:46:05 | 45 | 16:13:05 | 50.07 | 0 | 1.5 | 78 | 26 | 87 | 87 | 85 | 85 |
| 08/29/2026 | 18:00:00 | 241 | 94 | 17:06:00 | 88 | 17:59:05 | 88 | 63 | 18:00:00 | 49 | 17:03:00 | 62.8 | 0 | 0.5 | 63 | 9 | 86 | 86 | 85 | 85 |
| 08/29/2026 | 19:00:00 | 241 | 88 | 18:00:00 | 81 | 18:59:05 | 81 | 78 | 18:59:01 | 63 | 18:00:03 | 77.43 | 0 | 0.0 | 208 | 0 | 86 | 85 | 85 | 85 |
| 08/29/2026 | 20:00:00 | 241 | 81 | 19:00:01 | 78 | 19:59:05 | 78 | 86 | 19:59:05 | 77 | 19:00:00 | 85.8 | 0 | 0.4 | 185 | 0 | 85 | 84 | 85 | 84 |
| 08/29/2026 | 21:00:00 | 241 | 78 | 20:00:00 | 76 | 20:58:01 | 76 | 90 | 20:56:05 | 86 | 20:00:01 | 90.1 | 0 | 0.2 | 199 | 0 | 84 | 84 | 84 | 84 |
| 08/29/2026 | 22:00:00 | 241 | 77 | 21:40:04 | 76 | 21:25:01 | 76 | 91 | 21:11:04 | 87 | 21:42:02 | 89.2 | 0 | 0.4 | 31 | 0 | 83 | 83 | 84 | 83 |
| 08/29/2026 | 23:00:00 | 241 | 78 | 22:31:03 | 76 | 22:13:05 | 77 | 90 | 22:18:01 | 86 | 22:30:05 | 89.2 | 0 | 1.1 | 119 | 0 | 83 | 82 | 83 | 83 |
| 08/30/2026 | 0:00:00 | 242 | 78 | 23:20:03 | 74 | 23:59:05 | 75 | 93 | 23:56:02 | 87 | 23:19:04 | 92.6 | 0 | 1.0 | 133 | 0 | 82 | 82 | 83 | 83 |
| 08/30/2026 | 1:00:00 | 242 | 75 | 0:04:05 | 73 | 0:45:02 | 73 | 95 | 0:59:04 | 93 | 0:00:02 | 94.8 | 0 | 0.2 | 10 | 0 | 82 | 81 | 82 | 82 |
| 08/30/2026 | 2:00:00 | 242 | 73 | 1:00:02 | 72 | 2:00:00 | 72 | 96 | 1:52:03 | 94 | 1:09:02 | 95 | 0 | 0.3 | 343 | 0 | 81 | 81 | 82 | 82 |
| 08/30/2026 | 3:00:00 | 242 | 73 | 2:06:01 | 71 | 2:59:00 | 71 | 96 | 2:40:04 | 95 | 2:00:01 | 95.6 | 0 | 0.3 | 62 | 0 | 81 | 80 | 82 | 82 |
| 08/30/2026 | 4:00:00 | 242 | 72 | 3:12:05 | 70 | 3:53:04 | 71 | 96 | 3:56:00 | 96 | 3:00:01 | 96.1 | 0 | 0.0 | 0 | 0 | 80 | 80 | 81 | 81 |
| 08/30/2026 | 5:00:00 | 242 | 71 | 4:07:01 | 70 | 4:52:05 | 70 | 97 | 4:59:02 | 96 | 4:12:04 | 96.6 | 0 | 0.1 | 359 | 0 | 80 | 80 | 81 | 81 |
| 08/30/2026 | 6:00:00 | 242 | 70 | 5:48:01 | 69 | 5:27:04 | 70 | 97 | 5:44:04 | 96 | 5:18:05 | 96.7 | 0 | 0.1 | 121 | 0 | 79 | 79 | 81 | 80 |
| 08/30/2026 | 7:00:00 | 242 | 78 | 6:59:03 | 70 | 6:01:04 | 78 | 97 | 6:16:01 | 89 | 7:00:00 | 89.4 | 0 | 0.4 | 120 | 13 | 79 | 79 | 80 | 80 |
| 08/30/2026 | 8:00:00 | 242 | 83 | 7:48:00 | 78 | 7:00:00 | 82 | 89 | 7:00:00 | 79 | 7:48:04 | 79.32 | 0 | 1.9 | 116 | 30 | 79 | 80 | 80 | 80 |
| 08/30/2026 | 9:00:00 | 242 | 86 | 9:00:00 | 82 | 8:02:00 | 86 | 81 | 8:03:00 | 69 | 8:43:02 | 70.97 | 0 | 2.9 | 134 | 45 | 81 | 81 | 80 | 81 |
| 08/30/2026 | 10:00:00 | 242 | 88 | 9:24:02 | 85 | 9:47:04 | 87 | 73 | 9:01:05 | 64 | 9:55:00 | 66.69 | 0 | 3.3 | 143 | 50 | 82 | 83 | 81 | 82 |
| 08/30/2026 | 11:00:00 | 242 | 92 | 10:40:01 | 87 | 10:01:04 | 87 | 68 | 10:03:02 | 58 | 10:40:01 | 64.14 | 0 | 3.7 | 144 | 61 | 84 | 84 | 82 | 83 |
| 08/30/2026 | 12:00:00 | 242 | 92 | 11:38:04 | 87 | 11:15:02 | 91 | 67 | 11:02:03 | 55 | 11:39:00 | 56.66 | 0 | 3.7 | 114 | 58 | 85 | 86 | 83 | 83 |
| 08/30/2026 | 13:00:00 | 242 | 95 | 12:38:01 | 91 | 12:44:00 | 93 | 61 | 12:01:01 | 52 | 12:38:04 | 55.82 | 0 | 3.6 | 143 | 75 | 86 | 87 | 84 | 84 |
| 08/30/2026 | 14:00:00 | 242 | 95 | 13:21:05 | 92 | 13:06:03 | 94 | 58 | 13:08:00 | 50 | 13:21:02 | 50.62 | 0 | 3.7 | 105 | 74 | 88 | 88 | 85 | 85 |
| 08/30/2026 | 15:00:00 | 242 | 95 | 14:51:02 | 92 | 14:36:03 | 94 | 55 | 14:37:02 | 48 | 14:47:04 | 51.98 | 0 | 3.4 | 103 | 53 | 88 | 88 | 86 | 86 |
| 08/30/2026 | 16:00:00 | 242 | 95 | 15:00:03 | 91 | 15:08:03 | 92 | 55 | 15:59:00 | 50 | 15:23:03 | 54.42 | 0 | 3.1 | 87 | 35 | 88 | 88 | 86 | 86 |
| 08/30/2026 | 17:00:00 | 242 | 94 | 16:30:03 | 92 | 16:00:02 | 92 | 55 | 16:20:00 | 51 | 16:05:04 | 53.41 | 0 | 2.5 | 75 | 27 | 88 | 87 | 86 | 86 |
| 08/30/2026 | 18:00:00 | 242 | 92 | 17:00:00 | 88 | 17:59:05 | 88 | 61 | 17:59:05 | 54 | 17:00:04 | 60.7 | 0 | 2.4 | 83 | 9 | 87 | 87 | 86 | 86 |
| 08/30/2026 | 19:00:00 | 242 | 88 | 18:00:00 | 81 | 19:00:00 | 81 | 76 | 19:00:00 | 61 | 18:00:02 | 75.71 | 0 | 0.5 | 80 | 0 | 86 | 86 | 86 | 86 |
| 08/30/2026 | 20:00:00 | 242 | 82 | 19:00:00 | 79 | 19:59:01 | 79 | 84 | 19:59:05 | 76 | 19:00:00 | 83.6 | 0 | 0.3 | 125 | 0 | 85 | 85 | 85 | 85 |
| 08/30/2026 | 21:00:00 | 242 | 79 | 20:00:00 | 76 | 20:59:00 | 76 | 88 | 21:00:00 | 84 | 20:01:02 | 88.3 | 0 | 0.0 | 169 | 0 | 84 | 84 | 85 | 84 |
| 08/30/2026 | 22:00:00 | 242 | 76 | 21:00:01 | 75 | 21:58:02 | 75 | 92 | 21:54:02 | 88 | 21:00:00 | 91.6 | 0 | 0.1 | 214 | 0 | 84 | 83 | 84 | 84 |
| 08/30/2026 | 23:00:00 | 242 | 75 | 22:00:00 | 73 | 22:59:04 | 73 | 94 | 22:42:03 | 92 | 22:00:03 | 92.8 | 0 | 0.2 | 226 | 0 | 83 | 83 | 84 | 83 |
| 08/31/2026 | 0:00:00 | 243 | 74 | 23:19:03 | 73 | 23:47:05 | 73 | 94 | 23:04:02 | 92 | 23:39:02 | 93.1 | 0 | 0.3 | 14 | 0 | 82 | 82 | 83 | 83 |
| 08/31/2026 | 1:00:00 | 243 | 73 | 0:00:01 | 72 | 0:55:02 | 72 | 95 | 0:58:05 | 93 | 0:02:01 | 94.5 | 0 | 0.1 | 201 | 0 | 82 | 82 | 83 | 83 |
| 08/31/2026 | 2:00:00 | 243 | 73 | 1:02:03 | 71 | 1:59:04 | 71 | 95 | 1:56:04 | 94 | 1:05:05 | 95 | 0 | 0.0 | 124 | 0 | 81 | 81 | 82 | 82 |
| 08/31/2026 | 3:00:00 | 243 | 72 | 2:00:00 | 71 | 2:46:04 | 71 | 96 | 2:57:02 | 95 | 2:01:04 | 95.8 | 0 | 0.2 | 2 | 0 | 81 | 81 | 82 | 82 |
| 08/31/2026 | 4:00:00 | 243 | 71 | 3:01:01 | 70 | 3:59:04 | 70 | 96 | 3:39:02 | 96 | 3:17:02 | 96 | 0 | 0.1 | 211 | 0 | 80 | 80 | 82 | 81 |
| 08/31/2026 | 5:00:00 | 243 | 71 | 4:08:02 | 70 | 4:52:05 | 70 | 96 | 4:37:03 | 96 | 4:31:04 | 96.3 | 0 | 0.0 | 218 | 0 | 80 | 80 | 81 | 81 |
| 08/31/2026 | 6:00:00 | 243 | 70 | 5:24:03 | 69 | 5:50:05 | 70 | 97 | 5:58:05 | 96 | 5:01:00 | 96.7 | 0 | 0.1 | 193 | 0 | 80 | 79 | 81 | 81 |
| 08/31/2026 | 7:00:00 | 243 | 78 | 6:59:03 | 70 | 6:00:02 | 78 | 98 | 6:15:02 | 86 | 6:59:05 | 86.4 | 0 | 0.1 | 75 | 13 | 79 | 79 | 81 | 80 |
| 08/31/2026 | 8:00:00 | 243 | 85 | 7:51:01 | 78 | 7:01:01 | 85 | 87 | 7:04:01 | 74 | 7:54:03 | 75.28 | 0 | 1.6 | 90 | 29 | 80 | 80 | 80 | 81 |
| 08/31/2026 | 9:00:00 | 243 | 88 | 8:40:03 | 85 | 8:00:00 | 88 | 76 | 8:09:02 | 68 | 8:59:00 | 70.22 | 0 | 2.5 | 77 | 46 | 81 | 82 | 81 | 81 |
| 08/31/2026 | 10:00:00 | 243 | 91 | 9:45:02 | 87 | 9:03:00 | 90 | 71 | 9:09:02 | 60 | 9:45:03 | 62.96 | 0 | 3.9 | 111 | 60 | 83 | 83 | 82 | 82 |
| 08/31/2026 | 11:00:00 | 243 | 94 | 10:28:01 | 90 | 10:52:03 | 91 | 65 | 10:20:04 | 57 | 10:24:01 | 60.67 | 0 | 3.7 | 104 | 64 | 84 | 85 | 83 | 83 |
| 08/31/2026 | 12:00:00 | 243 | 95 | 11:56:02 | 90 | 11:04:02 | 93 | 63 | 11:07:01 | 52 | 11:57:01 | 55.4 | 0 | 3.3 | 85 | 58 | 86 | 87 | 84 | 84 |
| 08/31/2026 | 13:00:00 | 243 | 96 | 12:44:01 | 91 | 12:07:02 | 94 | 60 | 12:20:02 | 51 | 12:29:05 | 53 | 0 | 3.3 | 84 | 59 | 87 | 87 | 85 | 85 |
| 08/31/2026 | 14:00:00 | 243 | 97 | 13:38:02 | 92 | 13:15:01 | 93 | 57 | 13:16:04 | 48 | 13:54:00 | 53.14 | 0 | 3.8 | 89 | 56 | 88 | 88 | 85 | 86 |
| 08/31/2026 | 15:00:00 | 243 | 98 | 14:29:00 | 92 | 14:41:03 | 96 | 56 | 14:43:00 | 46 | 14:29:02 | 49.45 | 0 | 2.9 | 80 | 50 | 88 | 89 | 86 | 86 |
| 08/31/2026 | 16:00:00 | 243 | 96 | 15:18:00 | 94 | 15:43:04 | 94 | 52 | 15:14:05 | 48 | 15:29:02 | 51.02 | 0 | 3.4 | 77 | 40 | 89 | 88 | 86 | 87 |
| 08/31/2026 | 17:00:00 | 243 | 95 | 16:09:04 | 93 | 17:00:00 | 93 | 53 | 16:55:01 | 49 | 16:10:03 | 52.86 | 0 | 3.8 | 90 | 25 | 88 | 88 | 87 | 87 |
| 08/31/2026 | 18:00:00 | 243 | 93 | 17:04:03 | 90 | 17:59:05 | 90 | 60 | 17:59:01 | 53 | 17:11:02 | 60.03 | 0 | 2.3 | 84 | 9 | 87 | 87 | 86 | 86 |
| 08/31/2026 | 19:00:00 | 243 | 90 | 18:00:02 | 82 | 18:59:05 | 82 | 80 | 18:59:02 | 60 | 18:00:00 | 79.87 | 0 | 0.3 | 179 | 0 | 86 | 86 | 86 | 86 |
| 08/31/2026 | 20:00:00 | 243 | 82 | 19:00:01 | 78 | 19:59:02 | 78 | 86 | 20:00:00 | 80 | 19:00:05 | 86.4 | 0 | 0.3 | 135 | 0 | 86 | 85 | 86 | 85 |
| 08/31/2026 | 21:00:00 | 243 | 78 | 20:02:02 | 76 | 20:57:01 | 76 | 90 | 21:00:00 | 86 | 20:08:00 | 89.9 | 0 | 0.0 | 228 | 0 | 85 | 84 | 85 | 85 |
| 08/31/2026 | 22:00:00 | 243 | 76 | 21:01:01 | 75 | 22:00:00 | 75 | 92 | 21:46:01 | 90 | 21:08:02 | 91.6 | 0 | 0.1 | 197 | 0 | 84 | 84 | 84 | 84 |
| 08/31/2026 | 23:00:00 | 243 | 75 | 22:52:01 | 74 | 22:26:03 | 75 | 93 | 22:32:00 | 91 | 23:00:00 | 91.1 | 0 | 0.7 | 200 | 0 | 83 | 83 | 84 | 84 |
| 09/01/2026 | 0:00:00 | 244 | 75 | 23:00:00 | 74 | 23:58:01 | 74 | 93 | 23:52:05 | 91 | 23:00:03 | 93.3 | 0 | 0.1 | 193 | 0 | 83 | 82 | 83 | 83 |
| 09/01/2026 | 1:00:00 | 244 | 74 | 0:01:02 | 73 | 0:50:02 | 73 | 95 | 0:55:03 | 93 | 0:03:00 | 94.8 | 0 | 0.1 | 333 | 0 | 82 | 82 | 83 | 83 |
| 09/01/2026 | 2:00:00 | 244 | 73 | 1:10:05 | 72 | 1:56:04 | 72 | 96 | 1:52:05 | 95 | 1:01:02 | 95.3 | 0 | 0.1 | 221 | 0 | 82 | 81 | 83 | 82 |
| 09/01/2026 | 3:00:00 | 244 | 73 | 2:19:00 | 71 | 2:54:04 | 71 | 96 | 2:45:02 | 95 | 2:23:00 | 95.6 | 0 | 0.2 | 44 | 0 | 81 | 81 | 82 | 82 |
| 09/01/2026 | 4:00:00 | 244 | 72 | 3:12:02 | 71 | 3:45:01 | 71 | 96 | 3:25:02 | 95 | 3:03:00 | 96 | 0 | 0.1 | 228 | 0 | 81 | 81 | 82 | 82 |
| 09/01/2026 | 5:00:00 | 244 | 71 | 4:03:05 | 70 | 4:57:00 | 71 | 96 | 4:59:05 | 96 | 4:20:05 | 96.3 | 0 | 0.0 | 257 | 0 | 80 | 80 | 82 | 81 |
| 09/01/2026 | 6:00:00 | 244 | 71 | 5:00:03 | 70 | 5:34:04 | 71 | 97 | 5:22:05 | 96 | 5:29:04 | 96.5 | 0 | 0.4 | 204 | 0 | 80 | 80 | 81 | 81 |
| 09/01/2026 | 7:00:00 | 244 | 80 | 6:59:04 | 71 | 6:00:02 | 80 | 97 | 6:20:01 | 84 | 7:00:00 | 83.9 | 0 | 0.1 | 167 | 12 | 80 | 80 | 81 | 81 |
| 09/01/2026 | 8:00:00 | 244 | 88 | 7:59:04 | 80 | 7:00:01 | 88 | 85 | 7:00:03 | 68 | 8:00:00 | 67.59 | 0 | 0.7 | 64 | 29 | 80 | 81 | 81 | 81 |
| 09/01/2026 | 9:00:00 | 244 | 92 | 8:56:01 | 87 | 8:25:02 | 91 | 70 | 8:03:02 | 60 | 8:57:01 | 64.43 | 0 | 1.4 | 81 | 45 | 81 | 82 | 81 | 81 |
| 09/01/2026 | 10:00:00 | 244 | 94 | 9:24:03 | 89 | 9:10:05 | 91 | 66 | 9:11:00 | 56 | 9:44:03 | 59.57 | 0 | 2.5 | 126 | 59 | 83 | 84 | 82 | 82 |
| 09/01/2026 | 11:00:00 | 244 | 95 | 10:50:00 | 90 | 10:07:04 | 91 | 62 | 10:12:04 | 53 | 10:50:01 | 58.67 | 0 | 2.6 | 96 | 52 | 85 | 85 | 83 | 83 |
| 09/01/2026 | 12:00:00 | 244 | 97 | 11:11:05 | 91 | 11:45:00 | 95 | 62 | 11:03:03 | 50 | 11:13:04 | 53.62 | 0 | 3.0 | 124 | 56 | 86 | 87 | 84 | 84 |
| 09/01/2026 | 13:00:00 | 244 | 99 | 12:44:03 | 93 | 12:15:04 | 96 | 56 | 12:30:02 | 47 | 12:42:01 | 50.36 | 0 | 4.0 | 100 | 71 | 87 | 88 | 85 | 85 |
| 09/01/2026 | 14:00:00 | 244 | 98 | 13:59:02 | 94 | 13:07:01 | 98 | 54 | 13:11:02 | 44 | 13:50:00 | 45.75 | 0 | 4.6 | 107 | 69 | 88 | 89 | 86 | 86 |
| 09/01/2026 | 15:00:00 | 244 | 99 | 14:34:00 | 96 | 14:43:02 | 98 | 49 | 14:03:02 | 42 | 14:55:05 | 44.07 | 0 | 3.6 | 107 | 58 | 89 | 89 | 87 | 87 |
| 09/01/2026 | 16:00:00 | 244 | 98 | 15:03:03 | 96 | 15:44:01 | 97 | 47 | 15:29:01 | 43 | 15:00:01 | 45.27 | 0 | 3.4 | 96 | 43 | 89 | 89 | 87 | 87 |
| 09/01/2026 | 17:00:00 | 244 | 97 | 16:05:03 | 95 | 16:59:05 | 95 | 47 | 16:01:04 | 44 | 16:26:01 | 45.27 | 0 | 3.1 | 99 | 25 | 89 | 89 | 87 | 87 |
| 09/01/2026 | 18:00:00 | 244 | 96 | 17:02:04 | 91 | 17:59:05 | 91 | 55 | 17:59:04 | 45 | 17:09:01 | 54.48 | 0 | 1.5 | 70 | 8 | 88 | 88 | 87 | 87 |
| 09/01/2026 | 19:00:00 | 244 | 91 | 18:00:00 | 83 | 18:58:04 | 83 | 71 | 18:59:00 | 55 | 18:00:00 | 70.12 | 0 | 0.1 | 8 | 0 | 87 | 87 | 87 | 86 |
| 09/01/2026 | 20:00:00 | 244 | 83 | 19:00:02 | 78 | 19:59:05 | 78 | 84 | 19:59:02 | 69 | 19:01:05 | 84.3 | 0 | 0.5 | 195 | 0 | 86 | 86 | 86 | 86 |
| 09/01/2026 | 21:00:00 | 244 | 78 | 20:00:00 | 76 | 20:58:04 | 76 | 88 | 20:54:05 | 84 | 20:15:02 | 87.2 | 0 | 0.4 | 212 | 0 | 85 | 85 | 85 | 85 |
| 09/01/2026 | 22:00:00 | 244 | 76 | 21:00:02 | 75 | 21:49:04 | 75 | 90 | 21:52:03 | 87 | 21:00:00 | 89.5 | 0 | 0.5 | 209 | 0 | 84 | 84 | 85 | 85 |
| 09/01/2026 | 23:00:00 | 244 | 75 | 22:01:02 | 74 | 22:59:03 | 74 | 91 | 22:54:04 | 89 | 22:13:02 | 90.9 | 0 | 0.1 | 4 | 0 | 84 | 83 | 84 | 84 |
| 09/02/2026 | 0:00:00 | 245 | 74 | 23:30:02 | 74 | 23:18:05 | 74 | 92 | 23:20:05 | 90 | 23:59:04 | 90.4 | 0 | 0.2 | 22 | 0 | 83 | 83 | 84 | 84 |
| 09/02/2026 | 1:00:00 | 245 | 74 | 0:30:03 | 73 | 0:54:00 | 73 | 93 | 0:59:05 | 90 | 0:00:01 | 93 | 0 | 0.3 | 191 | 0 | 82 | 82 | 83 | 83 |
| 09/02/2026 | 2:00:00 | 245 | 74 | 1:09:05 | 72 | 1:58:00 | 72 | 94 | 1:56:00 | 93 | 1:17:04 | 93.9 | 0 | 0.3 | 213 | 0 | 82 | 82 | 83 | 83 |
| 09/02/2026 | 3:00:00 | 245 | 73 | 2:09:00 | 72 | 2:49:04 | 73 | 95 | 2:59:04 | 94 | 2:00:00 | 94.7 | 0 | 0.1 | 65 | 0 | 82 | 81 | 83 | 82 |
| 09/02/2026 | 4:00:00 | 245 | 73 | 3:00:04 | 72 | 3:56:04 | 72 | 95 | 3:58:05 | 94 | 3:10:04 | 95.1 | 0 | 0.0 | 212 | 0 | 81 | 81 | 82 | 82 |
| 09/02/2026 | 5:00:00 | 245 | 72 | 4:08:05 | 71 | 4:21:01 | 72 | 96 | 4:24:05 | 95 | 4:19:05 | 95.5 | 0 | 0.5 | 183 | 0 | 81 | 81 | 82 | 82 |
| 09/02/2026 | 6:00:00 | 245 | 72 | 5:55:04 | 71 | 5:34:03 | 72 | 96 | 5:55:04 | 95 | 5:08:05 | 95.8 | 0 | 0.2 | 339 | 0 | 81 | 80 | 82 | 82 |
| 09/02/2026 | 7:00:00 | 245 | 78 | 6:59:03 | 72 | 6:01:01 | 78 | 97 | 6:17:04 | 87 | 6:53:00 | 87.2 | 0 | 0.7 | 223 | 11 | 80 | 80 | 81 | 81 |
| 09/02/2026 | 8:00:00 | 245 | 84 | 7:59:04 | 78 | 7:00:01 | 84 | 87 | 7:00:00 | 78 | 7:56:00 | 77.87 | 0 | 2.2 | 349 | 28 | 81 | 81 | 81 | 81 |
| 09/02/2026 | 9:00:00 | 245 | 91 | 8:51:05 | 84 | 8:00:01 | 90 | 79 | 8:01:01 | 65 | 8:53:02 | 66.69 | 0 | 1.9 | 356 | 44 | 82 | 82 | 82 | 82 |
| 09/02/2026 | 10:00:00 | 245 | 94 | 9:55:04 | 89 | 9:04:01 | 94 | 69 | 9:15:03 | 58 | 9:56:04 | 59.09 | 0 | 2.5 | 43 | 62 | 83 | 84 | 82 | 83 |
| 09/02/2026 | 11:00:00 | 245 | 96 | 10:33:02 | 92 | 10:10:05 | 92 | 64 | 10:11:05 | 55 | 10:33:03 | 59.89 | 0 | 3.1 | 134 | 55 | 85 | 86 | 83 | 84 |
| 09/02/2026 | 12:00:00 | 245 | 98 | 11:41:00 | 92 | 11:00:01 | 94 | 62 | 11:01:00 | 47 | 11:47:03 | 53.3 | 0 | 3.0 | 152 | 70 | 87 | 88 | 84 | 85 |
| 09/02/2026 | 13:00:00 | 245 | 98 | 12:37:04 | 93 | 12:08:02 | 97 | 56 | 12:12:02 | 46 | 12:59:05 | 46.86 | 0 | 2.4 | 92 | 47 | 88 | 89 | 86 | 86 |
| 09/02/2026 | 14:00:00 | 245 | 100 | 13:15:03 | 91 | 14:00:00 | 91 | 61 | 13:55:03 | 42 | 13:10:02 | 60.11 | 0 | 3.9 | 118 | 46 | 89 | 89 | 86 | 87 |
| 09/02/2026 | 15:00:00 | 245 | 96 | 14:56:01 | 90 | 14:15:04 | 96 | 62 | 14:18:04 | 48 | 14:56:02 | 51.26 | 0 | 3.5 | 131 | 35 | 89 | 89 | 87 | 87 |
| 09/02/2026 | 16:00:00 | 245 | 98 | 15:11:01 | 92 | 15:50:04 | 92 | 55 | 15:56:04 | 46 | 15:11:03 | 54.27 | 0 | 3.0 | 141 | 18 | 88 | 88 | 87 | 87 |
| 09/02/2026 | 17:00:00 | 245 | 93 | 16:12:00 | 89 | 17:00:00 | 89 | 67 | 16:59:05 | 54 | 16:01:02 | 67.11 | 0 | 0.7 | 248 | 8 | 88 | 87 | 87 | 87 |
| 09/02/2026 | 18:00:00 | 245 | 89 | 17:00:01 | 84 | 17:59:05 | 84 | 75 | 17:59:05 | 65 | 17:07:02 | 75.15 | 0 | 1.4 | 290 | 1 | 87 | 87 | 86 | 86 |
| Average | 82.58 | 79.42 | 80.91 | 81.56 | 75.14 | 78.33 | 0 | 1.61 | 19.64 | 83.27 | 83.28 | 83.1 | 83.09 | |||||||
| Total | 0.23 |